createdAt,value
2024-05-09T00:00:30.356Z,71.42
2024-05-09T00:01:22.906Z,71.73
2024-05-09T00:02:22.926Z,71.83
2024-05-09T00:03:22.782Z,72.17
2024-05-09T00:04:22.834Z,72.28
2024-05-09T00:05:22.880Z,72.28
2024-05-09T00:06:22.760Z,72.28
2024-05-09T00:07:22.772Z,72.78
2024-05-09T00:08:22.763Z,72.69
2024-05-09T00:09:22.727Z,72.89
2024-05-09T00:10:29.150Z,73.23
2024-05-09T00:11:22.876Z,73.54
2024-05-09T00:12:22.699Z,73.74
2024-05-09T00:13:22.651Z,74.15
2024-05-09T00:14:22.739Z,73.95
2024-05-09T00:15:22.638Z,73.85
2024-05-09T00:16:22.665Z,73.95
2024-05-09T00:17:22.692Z,73.95
2024-05-09T00:18:22.790Z,73.85
2024-05-09T00:19:22.811Z,73.85
2024-05-09T00:20:28.424Z,73.85
2024-05-09T00:21:22.587Z,73.95
2024-05-09T00:22:22.543Z,73.95
2024-05-09T00:23:22.585Z,74.15
2024-05-09T00:24:22.521Z,74.46
2024-05-09T00:25:22.496Z,74.46
2024-05-09T00:26:22.665Z,74.15
2024-05-09T00:27:22.481Z,74.05
2024-05-09T00:28:22.464Z,73.95
2024-05-09T00:29:22.508Z,73.95
2024-05-09T00:30:31.581Z,73.95
2024-05-09T00:31:22.479Z,74.05
2024-05-09T00:32:22.588Z,74.66
2024-05-09T00:33:22.603Z,74.66
2024-05-09T00:34:22.475Z,74.77
2024-05-09T00:35:22.484Z,74.46
2024-05-09T00:36:22.410Z,74.36
2024-05-09T00:37:22.372Z,74.36
2024-05-09T00:38:22.406Z,74.46
2024-05-09T00:39:22.341Z,74.46
2024-05-09T00:40:30.641Z,74.60
2024-05-09T00:41:22.384Z,74.60
2024-05-09T00:42:22.297Z,74.90
2024-05-09T00:43:22.284Z,75.35
2024-05-09T00:44:22.391Z,75.45
2024-05-09T00:45:22.275Z,75.76
2024-05-09T00:46:22.283Z,76.07
2024-05-09T00:47:22.401Z,76.27
2024-05-09T00:48:22.464Z,76.51
2024-05-09T00:49:22.319Z,76.72
2024-05-09T00:50:29.838Z,76.82
2024-05-09T00:51:22.253Z,76.82
2024-05-09T00:52:22.191Z,76.82
2024-05-09T00:53:22.216Z,77.03
2024-05-09T00:54:22.159Z,77.03
2024-05-09T00:55:22.169Z,77.13
2024-05-09T00:56:23.689Z,77.23
2024-05-09T00:57:22.135Z,77.33
2024-05-09T00:58:22.110Z,77.44
2024-05-09T00:59:22.152Z,77.54
2024-05-09T01:00:30.545Z,77.74
2024-05-09T01:01:22.156Z,77.64
2024-05-09T01:02:22.155Z,77.74
2024-05-09T01:03:22.407Z,77.84
2024-05-09T01:04:22.060Z,77.88
2024-05-09T01:05:22.087Z,77.98
2024-05-09T01:06:22.050Z,77.88
2024-05-09T01:07:22.034Z,77.88
2024-05-09T01:08:22.043Z,77.98
2024-05-09T01:09:22.010Z,77.98
2024-05-09T01:10:28.121Z,78.09
2024-05-09T01:11:22.065Z,78.19
2024-05-09T01:12:22.064Z,78.29
2024-05-09T01:13:21.955Z,78.29
2024-05-09T01:14:22.030Z,78.39
2024-05-09T01:15:21.937Z,78.50
2024-05-09T01:16:21.925Z,78.39
2024-05-09T01:17:22.037Z,78.39
2024-05-09T01:18:22.117Z,78.39
2024-05-09T01:19:22.059Z,78.50
2024-05-09T01:20:31.803Z,78.50
2024-05-09T01:21:21.924Z,78.50
2024-05-09T01:22:21.865Z,78.50
2024-05-09T01:23:21.848Z,78.50
2024-05-09T01:24:21.829Z,78.50
2024-05-09T01:25:21.813Z,78.91
2024-05-09T01:26:21.891Z,78.91
2024-05-09T01:27:21.807Z,78.50
2024-05-09T01:28:21.792Z,78.29
2024-05-09T01:29:21.809Z,78.29
2024-05-09T01:30:31.188Z,78.29
2024-05-09T01:31:21.750Z,78.29
2024-05-09T01:32:22.059Z,78.50
2024-05-09T01:33:21.892Z,78.70
2024-05-09T01:34:21.739Z,78.60
2024-05-09T01:35:21.781Z,78.50
2024-05-09T01:36:21.715Z,78.60
2024-05-09T01:37:21.697Z,78.60
2024-05-09T01:38:21.739Z,78.74
2024-05-09T01:39:21.652Z,78.85
2024-05-09T01:40:28.664Z,79.05
2024-05-09T01:41:21.651Z,78.94
2024-05-09T01:42:21.634Z,79.36
2024-05-09T01:43:21.612Z,79.36
2024-05-09T01:44:21.641Z,79.25
2024-05-09T01:45:21.607Z,79.25
2024-05-09T01:46:21.577Z,79.46
2024-05-09T01:47:22.807Z,79.56
2024-05-09T01:48:21.739Z,79.46
2024-05-09T01:49:21.940Z,79.46
2024-05-09T01:50:33.073Z,79.60
2024-05-09T01:51:21.586Z,79.70
2024-05-09T01:52:21.529Z,79.80
2024-05-09T01:53:21.504Z,79.80
2024-05-09T01:54:21.528Z,79.80
2024-05-09T01:55:21.462Z,80.01
2024-05-09T01:56:21.486Z,80.11
2024-05-09T01:57:21.464Z,80.01
2024-05-09T01:58:21.430Z,80.11
2024-05-09T01:59:21.576Z,80.46
2024-05-09T02:00:30.261Z,80.25
2024-05-09T02:01:21.456Z,80.46
2024-05-09T02:02:21.512Z,80.56
2024-05-09T02:03:21.578Z,80.56
2024-05-09T02:04:21.613Z,80.77
2024-05-09T02:05:21.467Z,80.87
2024-05-09T02:06:21.359Z,80.77
2024-05-09T02:07:21.387Z,80.87
2024-05-09T02:08:22.047Z,81.07
2024-05-09T02:09:21.288Z,81.42
2024-05-09T02:10:26.609Z,81.83
2024-05-09T02:11:21.424Z,82.04
2024-05-09T02:12:21.597Z,82.24
2024-05-09T02:13:21.282Z,82.45
2024-05-09T02:14:22.423Z,82.69
2024-05-09T02:15:21.227Z,82.79
2024-05-09T02:16:21.210Z,82.79
2024-05-09T02:17:21.329Z,82.79
2024-05-09T02:18:21.361Z,83.00
2024-05-09T02:19:21.334Z,83.11
2024-05-09T02:20:30.244Z,83.11
2024-05-09T02:21:21.268Z,83.41
2024-05-09T02:22:21.170Z,83.31
2024-05-09T02:23:21.195Z,83.11
2024-05-09T02:24:21.205Z,83.11
2024-05-09T02:25:21.137Z,83.11
2024-05-09T02:26:21.177Z,83.11
2024-05-09T02:27:21.084Z,83.00
2024-05-09T02:28:21.162Z,83.00
2024-05-09T02:29:21.288Z,83.20
2024-05-09T02:30:29.943Z,83.31
2024-05-09T02:31:21.167Z,83.31
2024-05-09T02:32:21.211Z,83.51
2024-05-09T02:33:21.556Z,83.62
2024-05-09T02:34:21.091Z,83.76
2024-05-09T02:35:21.043Z,83.76
2024-05-09T02:36:20.981Z,83.97
2024-05-09T02:37:20.965Z,84.27
2024-05-09T02:38:21.185Z,84.27
2024-05-09T02:39:20.990Z,84.38
2024-05-09T02:40:28.915Z,84.38
2024-05-09T02:41:21.049Z,84.48
2024-05-09T02:42:20.899Z,84.48
2024-05-09T02:43:20.888Z,84.48
2024-05-09T02:44:20.995Z,84.38
2024-05-09T02:45:20.874Z,84.58
2024-05-09T02:46:20.852Z,84.72
2024-05-09T02:47:20.991Z,84.83
2024-05-09T02:48:21.031Z,85.03
2024-05-09T02:49:20.920Z,85.03
2024-05-09T02:50:29.698Z,84.93
2024-05-09T02:51:20.810Z,85.14
2024-05-09T02:52:20.789Z,85.14
2024-05-09T02:53:20.804Z,85.14
2024-05-09T02:54:20.766Z,85.24
2024-05-09T02:55:20.789Z,85.24
2024-05-09T02:56:20.869Z,85.44
2024-05-09T02:57:20.742Z,85.65
2024-05-09T02:58:20.736Z,85.89
2024-05-09T02:59:20.740Z,86.10
2024-05-09T03:00:26.444Z,86.31
2024-05-09T03:01:20.707Z,86.41
2024-05-09T03:02:22.224Z,86.41
2024-05-09T03:03:20.990Z,86.52
2024-05-09T03:04:20.717Z,86.52
2024-05-09T03:05:20.700Z,86.52
2024-05-09T03:06:20.631Z,86.52
2024-05-09T03:07:20.628Z,86.61
2024-05-09T03:08:20.651Z,86.72
2024-05-09T03:09:20.761Z,86.82
2024-05-09T03:10:25.596Z,86.72
2024-05-09T03:11:20.621Z,86.82
2024-05-09T03:12:20.623Z,86.72
2024-05-09T03:13:21.065Z,86.82
2024-05-09T03:14:20.623Z,86.93
2024-05-09T03:15:21.432Z,86.93
2024-05-09T03:16:20.557Z,87.03
2024-05-09T03:17:20.680Z,87.03
2024-05-09T03:18:20.619Z,87.07
2024-05-09T03:19:20.593Z,87.27
2024-05-09T03:20:24.177Z,87.07
2024-05-09T03:21:20.495Z,87.07
2024-05-09T03:22:20.462Z,87.07
2024-05-09T03:23:20.493Z,87.07
2024-05-09T03:24:20.448Z,87.07
2024-05-09T03:25:20.417Z,87.27
2024-05-09T03:26:20.510Z,87.38
2024-05-09T03:27:20.403Z,87.48
2024-05-09T03:28:20.391Z,87.48
2024-05-09T03:29:20.406Z,87.59
2024-05-09T03:30:29.599Z,87.59
2024-05-09T03:31:20.405Z,87.59
2024-05-09T03:32:20.425Z,87.59
2024-05-09T03:33:21.116Z,87.69
2024-05-09T03:34:20.347Z,87.38
2024-05-09T03:35:20.339Z,87.27
2024-05-09T03:36:20.340Z,87.38
2024-05-09T03:37:20.282Z,87.38
2024-05-09T03:38:20.351Z,87.48
2024-05-09T03:39:20.241Z,87.59
2024-05-09T03:40:23.831Z,87.69
2024-05-09T03:41:20.320Z,87.69
2024-05-09T03:42:20.729Z,87.79
2024-05-09T03:43:20.302Z,87.79
2024-05-09T03:44:20.252Z,87.90
2024-05-09T03:45:20.182Z,87.99
2024-05-09T03:46:20.225Z,87.90
2024-05-09T03:47:20.356Z,87.79
2024-05-09T03:48:20.387Z,87.90
2024-05-09T03:49:20.841Z,87.90
2024-05-09T03:50:26.338Z,87.90
2024-05-09T03:51:20.165Z,87.99
2024-05-09T03:52:20.125Z,88.14
2024-05-09T03:53:21.310Z,88.24
2024-05-09T03:54:20.090Z,88.24
2024-05-09T03:55:20.062Z,88.24
2024-05-09T03:56:20.158Z,88.24
2024-05-09T03:57:20.055Z,88.24
2024-05-09T03:58:20.028Z,88.10
2024-05-09T03:59:20.052Z,88.10
2024-05-09T04:00:30.066Z,88.20
2024-05-09T04:01:20.074Z,88.10
2024-05-09T04:02:20.077Z,88.10
2024-05-09T04:03:20.352Z,88.20
2024-05-09T04:04:20.011Z,88.31
2024-05-09T04:05:20.043Z,88.20
2024-05-09T04:06:19.994Z,88.10
2024-05-09T04:07:19.938Z,87.90
2024-05-09T04:08:20.081Z,87.69
2024-05-09T04:09:19.906Z,87.59
2024-05-09T04:10:27.726Z,87.59
2024-05-09T04:11:20.028Z,87.59
2024-05-09T04:12:19.917Z,87.48
2024-05-09T04:13:19.878Z,87.38
2024-05-09T04:14:19.891Z,87.38
2024-05-09T04:15:19.837Z,87.38
2024-05-09T04:16:19.831Z,87.38
2024-05-09T04:17:19.908Z,87.44
2024-05-09T04:18:19.900Z,87.44
2024-05-09T04:19:20.000Z,87.65
2024-05-09T04:20:29.281Z,87.34
2024-05-09T04:21:19.786Z,87.34
2024-05-09T04:22:19.789Z,87.44
2024-05-09T04:23:19.783Z,87.30
2024-05-09T04:24:19.745Z,87.09
2024-05-09T04:25:19.720Z,86.88
2024-05-09T04:26:19.785Z,86.79
2024-05-09T04:27:19.727Z,86.88
2024-05-09T04:28:19.710Z,86.79
2024-05-09T04:29:21.169Z,86.68
2024-05-09T04:30:26.314Z,86.68
2024-05-09T04:31:19.660Z,86.79
2024-05-09T04:32:19.723Z,86.68
2024-05-09T04:33:19.924Z,86.79
2024-05-09T04:34:19.717Z,86.88
2024-05-09T04:35:19.690Z,86.79
2024-05-09T04:36:19.606Z,86.99
2024-05-09T04:37:19.614Z,87.05
2024-05-09T04:38:19.630Z,86.74
2024-05-09T04:39:19.567Z,86.85
2024-05-09T04:40:28.139Z,86.85
2024-05-09T04:41:19.575Z,86.64
2024-05-09T04:42:19.558Z,86.50
2024-05-09T04:43:19.735Z,86.29
2024-05-09T04:44:19.577Z,85.88
2024-05-09T04:45:19.490Z,85.47
2024-05-09T04:46:19.512Z,85.47
2024-05-09T04:47:19.652Z,85.36
2024-05-09T04:48:19.679Z,85.26
2024-05-09T04:49:20.215Z,85.06
2024-05-09T04:50:29.059Z,85.33
2024-05-09T04:51:19.433Z,85.33
2024-05-09T04:52:19.994Z,85.22
2024-05-09T04:53:19.492Z,85.02
2024-05-09T04:54:26.245Z,84.71
2024-05-09T04:55:19.397Z,85.12
2024-05-09T04:56:19.455Z,85.02
2024-05-09T04:57:19.358Z,84.56
2024-05-09T04:58:19.348Z,84.20
2024-05-09T04:59:19.420Z,83.95
2024-05-09T05:00:28.135Z,83.95
2024-05-09T05:01:19.334Z,84.05
2024-05-09T05:02:19.394Z,83.95
2024-05-09T05:03:19.534Z,83.75
2024-05-09T05:04:19.408Z,83.44
2024-05-09T05:05:19.306Z,83.50
2024-05-09T05:06:19.258Z,83.33
2024-05-09T05:07:19.249Z,83.19
2024-05-09T05:08:19.710Z,83.61
2024-05-09T05:09:19.247Z,83.61
2024-05-09T05:10:25.445Z,83.61
2024-05-09T05:11:19.329Z,82.99
2024-05-09T05:12:19.399Z,82.57
2024-05-09T05:13:20.294Z,82.75
2024-05-09T05:14:19.240Z,82.84
2024-05-09T05:15:19.171Z,82.75
2024-05-09T05:16:19.129Z,82.23
2024-05-09T05:17:19.241Z,82.13
2024-05-09T05:18:19.546Z,82.23
2024-05-09T05:19:19.251Z,82.13
2024-05-09T05:20:27.359Z,82.13
2024-05-09T05:21:19.390Z,81.88
2024-05-09T05:22:19.077Z,81.57
2024-05-09T05:23:19.228Z,81.37
2024-05-09T05:24:19.079Z,81.06
2024-05-09T05:25:19.035Z,80.76
2024-05-09T05:26:19.159Z,80.24
2024-05-09T05:27:19.002Z,80.21
2024-05-09T05:28:19.007Z,80.41
2024-05-09T05:29:20.936Z,80.31
2024-05-09T05:30:24.985Z,80.21
2024-05-09T05:31:19.017Z,80.00
2024-05-09T05:32:19.073Z,80.51
2024-05-09T05:33:19.658Z,80.27
2024-05-09T05:34:18.953Z,79.66
2024-05-09T05:35:19.006Z,79.55
2024-05-09T05:36:18.914Z,79.66
2024-05-09T05:37:18.891Z,79.31
2024-05-09T05:38:20.046Z,78.80
2024-05-09T05:39:18.893Z,77.87
2024-05-09T05:40:28.051Z,77.57
2024-05-09T05:41:18.928Z,77.57
2024-05-09T05:42:18.855Z,77.67
2024-05-09T05:43:18.830Z,78.05
2024-05-09T05:44:18.910Z,77.02
2024-05-09T05:45:18.839Z,76.51
2024-05-09T05:46:18.789Z,76.92
2024-05-09T05:47:18.845Z,77.39
2024-05-09T05:48:19.283Z,76.54
2024-05-09T05:49:18.882Z,76.13
2024-05-09T05:50:27.308Z,76.03
2024-05-09T05:51:18.896Z,75.59
2024-05-09T05:52:18.722Z,75.07
2024-05-09T05:53:18.774Z,75.17
2024-05-09T05:54:18.726Z,75.07
2024-05-09T05:55:18.693Z,74.35
2024-05-09T05:56:18.725Z,74.46
2024-05-09T05:57:18.662Z,74.56
2024-05-09T05:58:18.654Z,74.05
2024-05-09T05:59:18.686Z,74.26
2024-05-09T06:00:28.993Z,74.05
2024-05-09T06:01:18.681Z,74.15
2024-05-09T06:02:18.745Z,73.91
2024-05-09T06:03:18.626Z,73.91
2024-05-09T06:04:18.669Z,74.11
2024-05-09T06:05:18.649Z,74.49
2024-05-09T06:06:18.576Z,73.88
2024-05-09T06:07:18.550Z,73.47
2024-05-09T06:08:18.575Z,73.36
2024-05-09T06:09:18.526Z,73.36
2024-05-09T06:10:25.206Z,73.33
2024-05-09T06:11:18.610Z,72.82
2024-05-09T06:12:18.638Z,72.62
2024-05-09T06:13:18.493Z,72.72
2024-05-09T06:14:18.533Z,72.58
2024-05-09T06:15:18.493Z,72.89
2024-05-09T06:16:18.477Z,72.99
2024-05-09T06:17:18.559Z,72.28
2024-05-09T06:18:18.761Z,71.94
2024-05-09T06:19:18.604Z,72.45
2024-05-09T06:20:23.918Z,72.55
2024-05-09T06:21:18.528Z,70.51
2024-05-09T06:22:18.372Z,70.31
2024-05-09T06:23:18.498Z,70.00
2024-05-09T06:24:18.352Z,70.20
2024-05-09T06:25:18.348Z,69.56
2024-05-09T06:26:18.427Z,69.56
2024-05-09T06:27:18.330Z,70.78
2024-05-09T06:28:18.334Z,71.26
2024-05-09T06:29:18.344Z,70.54
2024-05-09T06:30:25.454Z,70.85
2024-05-09T06:31:18.319Z,69.12
2024-05-09T06:32:18.341Z,68.20
2024-05-09T06:33:18.490Z,68.98
2024-05-09T06:34:18.468Z,69.90
2024-05-09T06:35:18.288Z,70.10
2024-05-09T06:36:18.239Z,68.95
2024-05-09T06:37:18.209Z,68.44
2024-05-09T06:38:18.253Z,67.93
2024-05-09T06:39:18.213Z,67.80
2024-05-09T06:40:25.409Z,67.90
2024-05-09T06:41:18.210Z,67.39
2024-05-09T06:42:18.174Z,66.88
2024-05-09T06:43:19.505Z,67.49
2024-05-09T06:44:18.235Z,66.68
2024-05-09T06:45:18.107Z,67.08
2024-05-09T06:46:18.096Z,67.36
2024-05-09T06:47:18.176Z,65.83
2024-05-09T06:48:18.412Z,65.94
2024-05-09T06:49:18.238Z,65.09
2024-05-09T06:50:23.769Z,65.19
2024-05-09T06:51:18.101Z,65.19
2024-05-09T06:52:18.054Z,65.16
2024-05-09T06:53:18.112Z,65.06
2024-05-09T06:54:18.021Z,64.25
2024-05-09T06:55:18.022Z,64.04
2024-05-09T06:56:18.055Z,63.64
2024-05-09T06:57:17.995Z,63.51
2024-05-09T06:58:18.002Z,64.22
2024-05-09T06:59:17.976Z,64.42
2024-05-09T07:00:26.822Z,63.51
2024-05-09T07:01:18.040Z,64.49
2024-05-09T07:02:18.018Z,63.58
2024-05-09T07:03:19.279Z,63.98
2024-05-09T07:04:18.098Z,62.46
2024-05-09T07:05:17.966Z,62.46
2024-05-09T07:06:17.938Z,62.26
2024-05-09T07:07:17.878Z,62.08
2024-05-09T07:08:17.999Z,61.98
2024-05-09T07:09:17.841Z,62.18
2024-05-09T07:10:25.412Z,62.76
2024-05-09T07:11:17.953Z,63.48
2024-05-09T07:12:18.022Z,63.55
2024-05-09T07:13:17.958Z,64.15
2024-05-09T07:14:17.816Z,63.34
2024-05-09T07:15:17.796Z,62.51
2024-05-09T07:16:17.754Z,61.99
2024-05-09T07:17:17.841Z,61.79
2024-05-09T07:18:18.948Z,61.99
2024-05-09T07:19:17.871Z,62.51
2024-05-09T07:20:23.677Z,61.62
2024-05-09T07:21:17.806Z,62.43
2024-05-09T07:22:17.727Z,63.55
2024-05-09T07:23:17.854Z,63.11
2024-05-09T07:24:17.654Z,62.10
2024-05-09T07:25:17.673Z,61.08
2024-05-09T07:26:17.861Z,60.75
2024-05-09T07:27:17.630Z,61.36
2024-05-09T07:28:17.797Z,61.53
2024-05-09T07:29:17.666Z,60.59
2024-05-09T07:30:23.532Z,59.85
2024-05-09T07:31:17.600Z,59.34
2024-05-09T07:32:17.730Z,59.72
2024-05-09T07:33:17.990Z,58.31
2024-05-09T07:34:17.753Z,57.70
2024-05-09T07:35:17.591Z,57.98
2024-05-09T07:36:17.519Z,57.17
2024-05-09T07:37:17.510Z,56.63
2024-05-09T07:38:17.582Z,56.94
2024-05-09T07:39:17.541Z,56.30
2024-05-09T07:40:27.596Z,54.96
2024-05-09T07:41:17.519Z,54.94
2024-05-09T07:42:17.439Z,55.04
2024-05-09T07:43:17.452Z,55.52
2024-05-09T07:44:17.561Z,54.08
2024-05-09T07:47:14.244Z,52.01
2024-05-09T07:50:34.243Z,51.73
2024-05-09T07:53:32.461Z,53.65
2024-05-09T07:53:49.460Z,54.31
2024-05-09T07:54:00.509Z,54.51
2024-05-09T07:54:56.310Z,52.89
2024-05-09T07:55:56.639Z,53.02
2024-05-09T07:56:56.185Z,54.33
2024-05-09T07:57:55.983Z,54.25
2024-05-09T07:58:56.470Z,55.77
2024-05-09T07:59:55.904Z,55.27
2024-05-09T08:00:56.057Z,55.07
2024-05-09T08:01:56.069Z,55.36
2024-05-09T08:02:55.992Z,54.76
2024-05-09T08:03:56.139Z,54.76
2024-05-09T08:04:55.954Z,54.66
2024-05-09T08:05:55.869Z,54.13
2024-05-09T08:06:55.878Z,54.03
2024-05-09T08:07:55.832Z,54.03
2024-05-09T08:08:56.765Z,54.23
2024-05-09T08:09:55.817Z,54.13
2024-05-09T08:10:55.868Z,54.05
2024-05-09T08:11:55.886Z,54.76
2024-05-09T08:12:55.796Z,54.86
2024-05-09T08:13:55.778Z,54.56
2024-05-09T08:14:55.740Z,53.96
2024-05-09T08:15:55.789Z,53.85
2024-05-09T08:16:55.789Z,53.96
2024-05-09T08:17:56.014Z,54.96
2024-05-09T08:18:55.795Z,53.75
2024-05-09T08:19:55.727Z,52.14
2024-05-09T08:20:57.633Z,53.47
2024-05-09T08:21:55.725Z,54.38
2024-05-09T08:22:55.641Z,54.05
2024-05-09T08:23:55.662Z,53.85
2024-05-09T08:24:55.752Z,54.05
2024-05-09T08:25:55.662Z,53.75
2024-05-09T08:26:55.605Z,53.96
2024-05-09T08:27:55.677Z,52.94
2024-05-09T08:28:55.577Z,53.34
2024-05-09T08:29:55.659Z,53.14
2024-05-09T08:30:55.752Z,53.34
2024-05-09T08:31:55.630Z,53.65
2024-05-09T08:32:55.714Z,52.51
2024-05-09T08:33:55.671Z,51.93
2024-05-09T08:34:55.665Z,53.05
2024-05-09T08:35:55.526Z,53.96
2024-05-09T08:36:57.546Z,53.45
2024-05-09T08:37:55.636Z,53.96
2024-05-09T08:38:55.486Z,53.42
2024-05-09T08:39:55.658Z,53.32
2024-05-09T08:40:55.548Z,52.72
2024-05-09T08:41:55.433Z,52.01
2024-05-09T08:42:55.500Z,52.01
2024-05-09T08:43:55.401Z,50.80
2024-05-09T08:44:55.415Z,50.59
2024-05-09T08:45:55.448Z,51.38
2024-05-09T08:46:55.408Z,52.69
2024-05-09T08:47:55.634Z,50.87
2024-05-09T08:48:55.580Z,50.87
2024-05-09T08:49:55.402Z,50.16
2024-05-09T08:50:55.427Z,49.16
2024-05-09T08:51:55.369Z,49.66
2024-05-09T08:52:55.306Z,47.95
2024-05-09T08:53:55.327Z,48.37
2024-05-09T08:54:55.366Z,49.87
2024-05-09T08:55:55.318Z,50.27
2024-05-09T08:56:55.292Z,49.26
2024-05-09T08:57:55.286Z,49.36
2024-05-09T08:58:55.251Z,48.35
2024-05-09T08:59:55.230Z,49.16
2024-05-09T09:00:55.364Z,49.96
2024-05-09T09:01:55.433Z,50.27
2024-05-09T09:02:55.288Z,50.07
2024-05-09T09:03:55.410Z,50.37
2024-05-09T09:04:55.266Z,50.35
2024-05-09T09:05:55.180Z,49.04
2024-05-09T09:06:57.732Z,47.42
2024-05-09T09:07:55.162Z,47.82
2024-05-09T09:08:55.156Z,47.72
2024-05-09T09:09:55.175Z,47.42
2024-05-09T09:10:55.146Z,47.12
2024-05-09T09:11:55.205Z,48.53
2024-05-09T09:12:55.114Z,47.80
2024-05-09T09:13:55.164Z,47.60
2024-05-09T09:14:55.066Z,46.69
2024-05-09T09:15:55.115Z,46.69
2024-05-09T09:16:55.073Z,46.99
2024-05-09T09:17:55.096Z,46.21
2024-05-09T09:18:55.178Z,46.23
2024-05-09T09:19:55.117Z,48.17
2024-05-09T09:20:55.248Z,48.39
2024-05-09T09:21:55.026Z,48.47
2024-05-09T09:22:54.979Z,48.07
2024-05-09T09:23:54.955Z,48.35
2024-05-09T09:24:54.988Z,48.35
2024-05-09T09:25:54.939Z,48.93
2024-05-09T09:26:54.982Z,47.32
2024-05-09T09:27:55.144Z,47.32
2024-05-09T09:28:54.915Z,47.80
2024-05-09T09:29:54.898Z,47.09
2024-05-09T09:30:54.927Z,47.70
2024-05-09T09:31:54.926Z,47.17
2024-05-09T09:32:54.997Z,45.16
2024-05-09T09:33:55.141Z,45.76
2024-05-09T09:34:54.932Z,45.36
2024-05-09T09:35:54.830Z,44.67
2024-05-09T09:36:54.841Z,45.89
2024-05-09T09:37:54.892Z,46.39
2024-05-09T09:38:54.798Z,47.19
2024-05-09T09:39:54.798Z,45.97
2024-05-09T09:40:54.823Z,46.47
2024-05-09T09:41:54.785Z,46.77
2024-05-09T09:42:54.844Z,45.18
2024-05-09T09:43:54.757Z,44.98
2024-05-09T09:45:03.743Z,44.42
2024-05-09T09:45:54.791Z,44.92
2024-05-09T09:46:54.788Z,46.03
2024-05-09T09:47:54.820Z,45.40
2024-05-09T09:48:54.780Z,45.30
2024-05-09T09:49:54.751Z,45.50
2024-05-09T09:50:54.656Z,45.68
2024-05-09T09:51:54.719Z,46.89
2024-05-09T09:52:54.637Z,47.17
2024-05-09T09:53:54.690Z,47.98
2024-05-09T09:54:54.899Z,47.75
2024-05-09T09:55:54.645Z,46.25
2024-05-09T09:56:54.628Z,45.82
2024-05-09T09:57:54.635Z,45.72
2024-05-09T09:58:54.568Z,44.92
2024-05-09T09:59:54.562Z,44.21
2024-05-09T10:00:54.744Z,44.81
2024-05-09T10:01:54.619Z,44.41
2024-05-09T10:02:54.566Z,44.21
2024-05-09T10:03:54.646Z,43.80
2024-05-09T10:04:54.613Z,43.51
2024-05-09T10:05:54.606Z,45.79
2024-05-09T10:06:54.539Z,45.59
2024-05-09T10:07:54.467Z,42.88
2024-05-09T10:08:54.506Z,42.68
2024-05-09T10:09:54.479Z,42.78
2024-05-09T10:10:54.599Z,44.19
2024-05-09T10:11:59.839Z,43.18
2024-05-09T10:12:55.270Z,41.87
2024-05-09T10:13:54.422Z,40.56
2024-05-09T10:14:54.415Z,41.87
2024-05-09T10:15:54.802Z,41.27
2024-05-09T10:16:54.357Z,42.19
2024-05-09T10:17:54.584Z,40.18
2024-05-09T10:18:54.615Z,41.79
2024-05-09T10:19:54.333Z,40.99
2024-05-09T10:20:54.346Z,40.78
2024-05-09T10:21:54.366Z,40.58
2024-05-09T10:22:54.299Z,40.46
2024-05-09T10:23:54.286Z,39.96
2024-05-09T10:24:54.309Z,39.45
2024-05-09T10:25:54.265Z,39.65
2024-05-09T10:26:54.245Z,39.84
2024-05-09T10:27:54.386Z,40.75
2024-05-09T10:28:54.224Z,39.54
2024-05-09T10:29:54.225Z,39.32
2024-05-09T10:30:54.220Z,38.53
2024-05-09T10:31:54.262Z,38.93
2024-05-09T10:32:54.282Z,40.42
2024-05-09T10:33:54.366Z,41.63
2024-05-09T10:34:54.211Z,41.33
2024-05-09T10:35:54.147Z,41.11
2024-05-09T10:36:54.231Z,40.00
2024-05-09T10:37:54.122Z,41.01
2024-05-09T10:38:54.113Z,40.48
2024-05-09T10:39:54.223Z,41.59
2024-05-09T10:40:54.082Z,40.48
2024-05-09T10:41:54.080Z,39.48
2024-05-09T10:42:54.206Z,39.58
2024-05-09T10:43:54.059Z,39.98
2024-05-09T10:44:54.044Z,39.47
2024-05-09T10:45:54.114Z,39.14
2024-05-09T10:46:54.075Z,39.03
2024-05-09T10:47:54.137Z,39.11
2024-05-09T10:48:54.088Z,38.17
2024-05-09T10:49:54.057Z,37.35
2024-05-09T10:50:53.958Z,37.88
2024-05-09T10:51:54.049Z,37.24
2024-05-09T10:52:53.938Z,37.55
2024-05-09T10:53:53.940Z,38.28
2024-05-09T10:54:54.008Z,39.40
2024-05-09T10:55:53.913Z,39.20
2024-05-09T10:56:53.963Z,39.42
2024-05-09T10:57:54.031Z,39.82
2024-05-09T10:58:53.865Z,40.41
2024-05-09T10:59:53.911Z,39.70
2024-05-09T11:00:53.967Z,40.79
2024-05-09T11:01:53.923Z,38.88
2024-05-09T11:02:53.860Z,39.18
2024-05-09T11:03:54.022Z,39.18
2024-05-09T11:04:54.075Z,39.56
2024-05-09T11:05:53.875Z,37.05
2024-05-09T11:06:54.727Z,34.44
2024-05-09T11:07:53.769Z,34.94
2024-05-09T11:08:53.777Z,36.45
2024-05-09T11:09:53.850Z,35.55
2024-05-09T11:10:53.844Z,37.05
2024-05-09T11:11:53.762Z,35.85
2024-05-09T11:12:53.824Z,35.64
2024-05-09T11:13:53.692Z,36.15
2024-05-09T11:14:53.730Z,36.35
2024-05-09T11:15:53.724Z,37.63
2024-05-09T11:16:53.705Z,38.14
2024-05-09T11:17:53.773Z,37.44
2024-05-09T11:18:53.731Z,37.94
2024-05-09T11:19:53.707Z,37.22
2024-05-09T11:20:53.636Z,36.61
2024-05-09T11:21:53.651Z,36.90
2024-05-09T11:22:53.600Z,36.30
2024-05-09T11:23:53.612Z,36.30
2024-05-09T11:24:53.636Z,37.00
2024-05-09T11:25:53.593Z,36.30
2024-05-09T11:26:53.558Z,37.70
2024-05-09T11:27:53.590Z,35.50
2024-05-09T11:28:53.555Z,34.80
2024-05-09T11:29:53.521Z,34.49
2024-05-09T11:30:53.578Z,35.11
2024-05-09T11:31:53.534Z,34.92
2024-05-09T11:32:53.633Z,34.83
2024-05-09T11:33:53.654Z,35.83
2024-05-09T11:34:53.468Z,36.03
2024-05-09T11:35:53.494Z,35.33
2024-05-09T11:36:53.501Z,37.22
2024-05-09T11:37:53.459Z,36.60
2024-05-09T11:38:53.395Z,34.29
2024-05-09T11:39:53.586Z,36.10
2024-05-09T11:40:53.570Z,35.30
2024-05-09T11:41:53.394Z,35.50
2024-05-09T11:42:53.695Z,35.80
2024-05-09T11:43:53.414Z,36.61
2024-05-09T11:44:53.339Z,36.61
2024-05-09T11:45:53.404Z,36.02
2024-05-09T11:46:53.374Z,36.43
2024-05-09T11:47:53.494Z,37.55
2024-05-09T11:48:53.583Z,36.75
2024-05-09T11:49:53.395Z,37.07
2024-05-09T11:50:53.306Z,37.77
2024-05-09T11:51:53.412Z,38.90
2024-05-09T11:52:53.264Z,39.48
2024-05-09T11:53:53.255Z,38.70
2024-05-09T11:54:53.288Z,39.10
2024-05-09T11:55:53.287Z,38.20
2024-05-09T11:56:53.220Z,39.28
2024-05-09T11:57:53.383Z,39.18
2024-05-09T11:58:53.287Z,38.58
2024-05-09T11:59:53.195Z,38.64
2024-05-09T12:00:53.383Z,37.74
2024-05-09T12:01:53.366Z,38.22
2024-05-09T12:02:53.183Z,39.40
2024-05-09T12:03:53.348Z,38.39
2024-05-09T12:04:53.223Z,36.96
2024-05-09T12:05:53.158Z,36.55
2024-05-09T12:06:53.174Z,36.94
2024-05-09T12:07:53.080Z,37.13
2024-05-09T12:08:53.086Z,36.93
2024-05-09T12:09:53.104Z,36.11
2024-05-09T12:10:53.509Z,36.11
2024-05-09T12:11:53.112Z,35.69
2024-05-09T12:12:53.075Z,33.88
2024-05-09T12:13:53.008Z,33.36
2024-05-09T12:14:53.031Z,32.67
2024-05-09T12:15:53.063Z,33.26
2024-05-09T12:16:53.026Z,33.47
2024-05-09T12:17:53.210Z,33.08
2024-05-09T12:18:53.144Z,34.18
2024-05-09T12:19:52.996Z,36.28
2024-05-09T12:20:52.934Z,33.66
2024-05-09T12:21:52.961Z,32.88
2024-05-09T12:22:52.969Z,33.56
2024-05-09T12:23:52.914Z,33.47
2024-05-09T12:24:52.929Z,33.54
2024-05-09T12:25:52.891Z,31.67
2024-05-09T12:26:53.003Z,31.57
2024-05-09T12:27:52.926Z,32.56
2024-05-09T12:28:52.853Z,33.96
2024-05-09T12:29:52.840Z,33.45
2024-05-09T12:30:52.935Z,32.15
2024-05-09T12:31:52.837Z,32.33
2024-05-09T12:32:53.104Z,30.54
2024-05-09T12:33:52.863Z,30.14
2024-05-09T12:34:52.762Z,31.73
2024-05-09T12:35:52.769Z,30.93
2024-05-09T12:36:52.780Z,30.24
2024-05-09T12:37:52.746Z,30.14
2024-05-09T12:38:52.737Z,30.54
2024-05-09T12:39:52.755Z,30.54
2024-05-09T12:40:52.976Z,30.74
2024-05-09T12:41:52.703Z,31.24
2024-05-09T12:42:52.764Z,31.43
2024-05-09T12:43:52.676Z,30.63
2024-05-09T12:44:52.651Z,29.85
2024-05-09T12:45:52.788Z,31.28
2024-05-09T12:46:52.667Z,30.99
2024-05-09T12:47:52.752Z,32.79
2024-05-09T12:48:52.902Z,32.71
2024-05-09T12:49:52.730Z,32.81
2024-05-09T12:50:52.658Z,34.03
2024-05-09T12:51:52.655Z,34.63
2024-05-09T12:52:52.583Z,35.83
2024-05-09T12:53:52.610Z,34.41
2024-05-09T12:54:52.626Z,35.01
2024-05-09T12:55:56.985Z,35.19
2024-05-09T12:56:52.535Z,34.19